KMFV/MFV METAR and TAF weather

Enter ICAO airport designator
Station Type Date Time Source
KMFV METAR 2019/02/16 07:15 UTC NOAA

KMFV 160715Z AUTO 34008KT 10SM SCT085 SCT120 12/07 A2976 RMK AO2 T01230068


Station Type Date Time Source
KMFV Decoded METAR 2019/02/16 07:15 UTC NOAA

Melfa / Accomack Airport, VA, United States (KMFV) 37-39N 075-46W
Feb 16, 2019 - 02:15 AM EST / 2019.02.16 0715 UTC
Wind: from the NNW (340 degrees) at 9 MPH (8 KT):0
Visibility: 10 mile(s):0
Sky conditions: partly cloudy
Temperature: 54.1 F (12.3 C)
Dew Point: 44.2 F (6.8 C)
Relative Humidity: 69%
Pressure (altimeter): 29.76 in. Hg (1007 hPa)
ob: KMFV 160715Z AUTO 34008KT 10SM SCT085 SCT120 12/07 A2976 RMK AO2 T01230068
cycle: 7

Station Type Date Time Source
KMFV TAF UTC NOAA

Error!


Example: see airport list